Time;durP1;ratioP1;P1;durP2;ratioP2;P2;SDS_P1;SDS_P2;PMS_P1;PMS_P2;Temp;Humidity;BMP_temperature;BMP_pressure;BME280_temperature;BME280_humidity;BME280_pressure;Samples;Min_cycle;Max_cycle;Signal;HPM_P1;HPM_P2
2022/03/17 00:00:47;;;;;;;;;;;;;;;5.29;100.00;99236.88;10448184;28;19925;-80
2022/03/17 00:05:47;;;;;;;;;;;;;;;5.23;100.00;99235.28;10459154;28;19928;-80
2022/03/17 00:10:48;;;;;;;;;;;;;;;5.14;100.00;99244.84;10481576;28;19928;-79
2022/03/17 00:15:48;;;;;;;;;;;;;;;5.08;100.00;99249.38;10463342;28;19995;-78
2022/03/17 00:20:49;;;;;;;;;;;;;;;5.08;100.00;99241.38;10467309;28;20598;-82
2022/03/17 00:25:49;;;;;;;;;;;;;;;5.02;100.00;99231.78;10439991;28;19960;-80
2022/03/17 00:30:50;;;;;;;;;;;;;;;4.97;100.00;99220.34;10445218;28;19928;-81
2022/03/17 00:35:50;;;;;;;;;;;;;;;4.92;100.00;99210.47;10465458;28;19928;-82
2022/03/17 00:40:55;;;;;;;;;;;;;;;4.85;100.00;99205.44;10485617;28;19928;-78
2022/03/17 00:45:58;;;;;;;;;;;;;;;4.89;100.00;99213.66;10464512;28;19975;-79
2022/03/17 00:51:00;;;;;;;;;;;;;;;4.79;100.00;99229.59;10486683;28;19929;-82
2022/03/17 00:56:00;;;;;;;;;;;;;;;4.82;100.00;99208.59;10492382;28;19913;-80
2022/03/17 01:01:01;;;;;;;;;;;;;;;4.73;100.00;99207.50;10519937;28;19943;-82
2022/03/17 01:06:03;;;;;;;;;;;;;;;4.83;100.00;99204.88;10523632;28;19959;-78
2022/03/17 01:11:04;;;;;;;;;;;;;;;4.82;100.00;99195.28;10488781;28;20235;-78
2022/03/17 01:16:04;;;;;;;;;;;;;;;4.79;100.00;99195.03;10485648;28;19951;-79
2022/03/17 01:21:06;;;;;;;;;;;;;;;4.79;100.00;99205.66;10513769;28;19963;-79
2022/03/17 01:26:07;;;;;;;;;;;;;;;4.72;100.00;99203.25;10498580;28;19916;-80
2022/03/17 01:31:08;;;;;;;;;;;;;;;4.67;100.00;99195.28;10495382;28;20031;-79
2022/03/17 01:36:08;;;;;;;;;;;;;;;4.73;100.00;99201.38;10523627;28;19938;-78
2022/03/17 01:41:09;;;;;;;;;;;;;;;4.63;100.00;99188.06;10465356;28;19963;-79
2022/03/17 01:46:14;;;;;;;;;;;;;;;4.56;100.00;99180.31;10473260;28;20037;-79
2022/03/17 01:51:15;;;;;;;;;;;;;;;4.55;100.00;99181.38;10480774;28;19959;-79
2022/03/17 01:56:17;;;;;;;;;;;;;;;4.64;100.00;99185.13;10480399;28;20376;-79
2022/03/17 02:01:19;;;;;;;;;;;;;;;4.53;100.00;99173.69;10461897;28;19928;-80
2022/03/17 02:06:21;;;;;;;;;;;;;;;4.50;100.00;99176.06;10461965;28;19935;-81
2022/03/17 02:16:41;;;;;;;;;;;;;;;4.45;100.00;99173.38;10493804;28;20296;-81
2022/03/17 02:21:45;;;;;;;;;;;;;;;4.43;100.00;99170.19;10454708;28;19932;-80
2022/03/17 02:26:46;;;;;;;;;;;;;;;4.37;100.00;99172.03;10459294;28;19929;-80
2022/03/17 02:31:47;;;;;;;;;;;;;;;4.32;100.00;99168.56;10464570;28;19935;-80
2022/03/17 02:36:54;;;;;;;;;;;;;;;4.29;100.00;99156.56;10472797;28;19999;-81
2022/03/17 02:41:55;;;;;;;;;;;;;;;4.35;100.00;99157.41;10453583;28;20034;-80
2022/03/17 02:46:55;;;;;;;;;;;;;;;4.33;100.00;99159.53;10459796;28;19995;-77
2022/03/17 02:51:56;;;;;;;;;;;;;;;4.28;100.00;99170.91;10500923;28;19931;-79
2022/03/17 02:56:58;;;;;;;;;;;;;;;4.25;100.00;99166.94;10479885;28;19993;-79
2022/03/17 03:02:04;;;;;;;;;;;;;;;4.24;100.00;99168.00;10477874;28;19935;-79
2022/03/17 03:07:06;;;;;;;;;;;;;;;4.27;100.00;99170.13;10462313;28;20631;-79
2022/03/17 03:12:06;;;;;;;;;;;;;;;4.27;100.00;99164.00;10449285;28;19973;-79
2022/03/17 03:17:07;;;;;;;;;;;;;;;4.23;100.00;99165.59;10476248;28;19924;-79
2022/03/17 03:22:08;;;;;;;;;;;;;;;4.22;100.00;99167.47;10451030;28;20279;-79
2022/03/17 03:27:08;;;;;;;;;;;;;;;4.25;100.00;99187.38;10443436;28;19928;-80
2022/03/17 03:32:09;;;;;;;;;;;;;;;4.28;100.00;99192.19;10474528;28;20020;-78
2022/03/17 03:37:25;;;;;;;;;;;;;;;4.31;100.00;99198.84;10459618;28;20037;-79
2022/03/17 03:42:26;;;;;;;;;;;;;;;4.33;100.00;99202.03;10482029;28;19928;-79
2022/03/17 03:47:26;;;;;;;;;;;;;;;4.37;100.00;99219.06;10446366;28;19941;-77
2022/03/17 03:52:28;;;;;;;;;;;;;;;4.38;100.00;99231.28;10449860;28;19939;-78
2022/03/17 03:57:28;;;;;;;;;;;;;;;4.40;100.00;99240.63;10462421;28;19960;-76
2022/03/17 04:02:30;;;;;;;;;;;;;;;4.31;100.00;99231.53;10474509;28;20000;-77
2022/03/17 04:07:30;;;;;;;;;;;;;;;4.31;100.00;99246.69;10505702;28;20104;-82
2022/03/17 04:12:30;;;;;;;;;;;;;;;4.21;100.00;99237.59;10504817;28;19929;-80
2022/03/17 04:17:32;;;;;;;;;;;;;;;4.16;100.00;99250.84;10471016;28;20217;-79
2022/03/17 04:22:33;;;;;;;;;;;;;;;4.05;100.00;99246.53;10488532;28;20011;-79
2022/03/17 04:27:33;;;;;;;;;;;;;;;4.00;100.00;99255.25;10476875;28;19925;-80
2022/03/17 04:32:34;;;;;;;;;;;;;;;4.10;100.00;99259.03;10473510;28;19940;-79
2022/03/17 04:37:34;;;;;;;;;;;;;;;4.15;100.00;99257.22;10485418;28;20013;-79
2022/03/17 04:42:37;;;;;;;;;;;;;;;4.18;100.00;99250.59;10489919;28;19929;-79
2022/03/17 04:47:39;;;;;;;;;;;;;;;4.18;100.00;99255.91;10481806;28;19925;-79
2022/03/17 04:58:02;;;;;;;;;;;;;;;4.24;100.00;99262.84;10474374;28;20367;-80
2022/03/17 05:03:03;;;;;;;;;;;;;;;4.24;100.00;99268.16;10500048;28;19928;-81
2022/03/17 05:08:04;;;;;;;;;;;;;;;4.27;100.00;99271.09;10493718;28;19928;-80
2022/03/17 05:13:11;;;;;;;;;;;;;;;4.28;100.00;99262.06;10481614;28;19924;-80
2022/03/17 05:18:11;;;;;;;;;;;;;;;4.32;100.00;99272.19;10508461;28;19916;-81
2022/03/17 05:23:13;;;;;;;;;;;;;;;4.29;100.00;99287.56;10486148;28;20276;-81
2022/03/17 05:28:13;;;;;;;;;;;;;;;4.32;100.00;99277.50;10475129;28;20383;-80
2022/03/17 05:33:13;;;;;;;;;;;;;;;4.28;100.00;99282.53;10478655;28;19928;-80
2022/03/17 05:38:14;;;;;;;;;;;;;;;4.31;100.00;99279.38;10493275;28;19951;-79
2022/03/17 05:43:14;;;;;;;;;;;;;;;4.24;100.00;99279.59;10461544;28;19925;-79
2022/03/17 05:48:14;;;;;;;;;;;;;;;4.21;100.00;99285.44;10486171;28;19928;-79
2022/03/17 05:53:15;;;;;;;;;;;;;;;4.22;100.00;99288.88;10495302;28;19929;-79
2022/03/17 05:58:15;;;;;;;;;;;;;;;4.24;100.00;99295.53;10479566;28;19950;-78
2022/03/17 06:03:15;;;;;;;;;;;;;;;4.29;100.00;99294.75;10496416;28;19913;-80
2022/03/17 06:08:17;;;;;;;;;;;;;;;4.33;100.00;99298.50;10450470;28;20078;-78
2022/03/17 06:13:18;;;;;;;;;;;;;;;4.41;100.00;99307.88;10458557;28;19967;-78
2022/03/17 06:18:19;;;;;;;;;;;;;;;4.49;100.00;99310.03;10488769;28;20215;-80
2022/03/17 06:23:20;;;;;;;;;;;;;;;4.65;100.00;99310.91;10473647;28;19929;-79
2022/03/17 06:28:21;;;;;;;;;;;;;;;4.73;100.00;99313.06;10475723;28;19928;-78
2022/03/17 06:33:22;;;;;;;;;;;;;;;4.83;100.00;99308.59;10494631;28;19944;-78
2022/03/17 06:38:23;;;;;;;;;;;;;;;4.94;100.00;99308.63;10481658;28;19940;-78
2022/03/17 06:43:23;;;;;;;;;;;;;;;5.04;100.00;99309.50;10418062;28;19925;-78
2022/03/17 06:48:23;;;;;;;;;;;;;;;5.16;100.00;99319.91;10489729;28;19933;-77
2022/03/17 06:53:24;;;;;;;;;;;;;;;5.26;100.00;99316.47;10501142;28;19929;-77
2022/03/17 06:58:25;;;;;;;;;;;;;;;5.34;100.00;99316.75;10469787;28;19928;-79
2022/03/17 07:03:25;;;;;;;;;;;;;;;5.46;100.00;99324.50;10464553;28;19956;-79
2022/03/17 07:08:26;;;;;;;;;;;;;;;5.56;100.00;99324.50;10486806;28;19929;-78
2022/03/17 07:13:26;;;;;;;;;;;;;;;5.65;100.00;99324.78;10481160;28;19912;-81
2022/03/17 07:18:26;;;;;;;;;;;;;;;5.71;100.00;99324.53;10501309;28;20000;-76
2022/03/17 07:23:27;;;;;;;;;;;;;;;5.78;100.00;99331.47;10471235;28;19946;-78
2022/03/17 07:28:28;;;;;;;;;;;;;;;5.98;100.00;99328.84;10507013;28;19928;-77
2022/03/17 07:33:29;;;;;;;;;;;;;;;6.05;100.00;99339.25;10476525;28;19983;-79
2022/03/17 07:38:32;;;;;;;;;;;;;;;6.13;100.00;99331.53;10476269;28;19956;-77
2022/03/17 07:43:32;;;;;;;;;;;;;;;6.34;100.00;99334.97;10457418;28;19959;-78
2022/03/17 07:49:11;;;;;;;;;;;;;;;6.68;100.00;99342.38;10344971;28;20025;-82
2022/03/17 07:54:13;;;;;;;;;;;;;;;6.70;100.00;99346.34;10419902;28;19983;-78
2022/03/17 07:59:16;;;;;;;;;;;;;;;6.96;100.00;99338.28;10451208;28;19936;-78
2022/03/17 08:04:16;;;;;;;;;;;;;;;6.84;100.00;99343.91;10466462;28;20466;-78
2022/03/17 08:09:17;;;;;;;;;;;;;;;6.80;100.00;99349.00;10476427;28;19939;-79
2022/03/17 08:14:17;;;;;;;;;;;;;;;7.02;100.00;99361.19;10482477;28;20000;-77
2022/03/17 08:19:18;;;;;;;;;;;;;;;7.26;100.00;99374.72;10462043;28;20770;-77
2022/03/17 08:24:18;;;;;;;;;;;;;;;7.38;100.00;99389.34;10460252;28;19932;-79
2022/03/17 08:29:19;;;;;;;;;;;;;;;7.70;100.00;99388.13;10466720;28;20419;-78
2022/03/17 08:34:19;;;;;;;;;;;;;;;7.59;100.00;99389.22;10465232;28;19935;-81
2022/03/17 08:39:20;;;;;;;;;;;;;;;7.66;100.00;99387.84;10447243;28;19928;-81
2022/03/17 08:44:21;;;;;;;;;;;;;;;7.89;100.00;99382.91;10464341;28;20765;-78
2022/03/17 08:49:23;;;;;;;;;;;;;;;8.13;100.00;99388.34;10462876;28;20575;-79
2022/03/17 08:54:25;;;;;;;;;;;;;;;8.04;100.00;99388.13;10449629;28;19939;-79
2022/03/17 08:59:30;;;;;;;;;;;;;;;8.40;100.00;99385.22;10464259;28;19947;-77
2022/03/17 09:04:30;;;;;;;;;;;;;;;8.22;100.00;99386.66;10445568;28;20260;-79
2022/03/17 09:09:32;;;;;;;;;;;;;;;8.52;100.00;99386.47;10425132;28;19966;-78
2022/03/17 09:14:36;;;;;;;;;;;;;;;8.48;100.00;99395.31;10460903;28;19975;-78
2022/03/17 09:19:37;;;;;;;;;;;;;;;8.68;100.00;99399.66;10440102;28;19956;-79
2022/03/17 09:24:37;;;;;;;;;;;;;;;8.80;100.00;99398.22;10460704;28;19933;-78
2022/03/17 09:29:40;;;;;;;;;;;;;;;8.99;100.00;99406.31;10458421;28;19973;-80
2022/03/17 09:34:42;;;;;;;;;;;;;;;8.73;100.00;99391.59;10458410;28;19928;-77
2022/03/17 09:39:46;;;;;;;;;;;;;;;9.10;100.00;99385.59;10460267;28;20005;-78
2022/03/17 09:44:52;;;;;;;;;;;;;;;9.00;100.00;99386.50;10471843;28;19928;-78
2022/03/17 09:49:59;;;;;;;;;;;;;;;8.96;100.00;99388.16;10470031;28;20023;-79
2022/03/17 09:55:00;;;;;;;;;;;;;;;9.19;100.00;99396.47;10480421;28;19937;-78
2022/03/17 10:00:01;;;;;;;;;;;;;;;8.99;100.00;99400.19;10459958;28;19937;-78
2022/03/17 10:05:02;;;;;;;;;;;;;;;9.21;100.00;99403.13;10459296;28;19929;-77
2022/03/17 10:10:02;;;;;;;;;;;;;;;9.33;100.00;99411.56;10460096;28;20076;-78
2022/03/17 10:15:05;;;;;;;;;;;;;;;9.29;100.00;99415.88;10461214;28;19933;-78
2022/03/17 10:20:15;;;;;;;;;;;;;;;9.44;100.00;99412.22;10468687;28;19943;-79
2022/03/17 10:25:19;;;;;;;;;;;;;;;9.04;100.00;99416.97;10482200;28;19967;-78
2022/03/17 10:30:33;;;;;;;;;;;;;;;9.31;100.00;99419.06;10458907;28;19939;-77
2022/03/17 10:35:34;;;;;;;;;;;;;;;9.50;100.00;99423.66;10450397;28;19982;-76
2022/03/17 10:40:35;;;;;;;;;;;;;;;9.32;100.00;99426.03;10428656;28;20001;-78
2022/03/17 10:46:12;;;;;;;;;;;;;;;9.68;100.00;99425.56;10457322;28;19929;-79
2022/03/17 10:51:28;;;;;;;;;;;;;;;9.47;100.00;99425.06;10458101;28;19936;-78
2022/03/17 10:56:29;;;;;;;;;;;;;;;9.72;100.00;99423.94;10439751;28;19939;-77
2022/03/17 11:01:35;;;;;;;;;;;;;;;9.84;100.00;99429.66;10446516;28;19954;-77
2022/03/17 11:06:38;;;;;;;;;;;;;;;9.61;100.00;99428.63;10447384;28;20646;-79
2022/03/17 11:11:39;;;;;;;;;;;;;;;9.74;100.00;99429.00;10439484;28;20378;-79
2022/03/17 11:16:46;;;;;;;;;;;;;;;9.85;100.00;99428.56;10442833;28;19933;-79
2022/03/17 11:21:49;;;;;;;;;;;;;;;10.08;100.00;99426.09;10432683;28;19932;-81
2022/03/17 11:26:51;;;;;;;;;;;;;;;9.84;100.00;99424.28;10436464;28;19960;-80
2022/03/17 11:31:57;;;;;;;;;;;;;;;10.04;98.70;99425.09;10469570;28;19909;-82
2022/03/17 11:37:16;;;;;;;;;;;;;;;10.16;100.00;99417.41;10481359;28;19999;-80
2022/03/17 11:42:33;;;;;;;;;;;;;;;10.13;95.12;99417.97;10443445;28;19933;-82
2022/03/17 11:47:36;;;;;;;;;;;;;;;10.21;100.00;99420.00;10439928;28;19932;-80
2022/03/17 11:52:37;;;;;;;;;;;;;;;10.14;96.59;99411.50;10445394;28;19997;-80
2022/03/17 11:57:37;;;;;;;;;;;;;;;10.00;92.84;99419.50;10444359;28;19925;-78
2022/03/17 12:02:43;;;;;;;;;;;;;;;10.00;91.61;99416.03;10442310;28;20024;-77
2022/03/17 12:07:47;;;;;;;;;;;;;;;10.06;95.46;99429.09;10465197;28;19933;-77
2022/03/17 12:12:52;;;;;;;;;;;;;;;10.19;91.62;99424.88;10472111;28;19944;-81
2022/03/17 12:18:12;;;;;;;;;;;;;;;10.07;94.96;99435.25;10430682;28;19932;-80
2022/03/17 12:23:31;;;;;;;;;;;;;;;10.07;92.37;99430.69;10435592;28;19968;-78
2022/03/17 12:28:31;;;;;;;;;;;;;;;10.28;95.57;99438.44;10450232;28;19985;-78
2022/03/17 12:33:32;;;;;;;;;;;;;;;10.42;93.28;99437.41;10418920;28;19928;-79
2022/03/17 12:38:34;;;;;;;;;;;;;;;10.61;96.46;99450.81;10475872;28;19960;-81
2022/03/17 12:43:34;;;;;;;;;;;;;;;10.29;88.53;99448.88;10482123;28;19967;-78
2022/03/17 12:48:35;;;;;;;;;;;;;;;10.27;88.80;99444.91;10499457;28;19940;-78
2022/03/17 12:53:35;;;;;;;;;;;;;;;10.67;88.62;99449.59;10461894;28;19935;-79
2022/03/17 12:58:40;;;;;;;;;;;;;;;10.69;87.59;99450.09;10458179;28;19931;-80
2022/03/17 13:03:43;;;;;;;;;;;;;;;10.66;86.92;99439.97;10458290;28;20418;-79
2022/03/17 13:08:45;;;;;;;;;;;;;;;10.71;83.16;99445.25;10437286;28;19932;-78
2022/03/17 13:19:08;;;;;;;;;;;;;;;11.02;84.57;99442.81;10470366;28;20445;-79
2022/03/17 13:24:13;;;;;;;;;;;;;;;11.29;90.01;99447.41;10437230;28;20384;-79
2022/03/17 13:29:13;;;;;;;;;;;;;;;10.80;82.33;99438.13;10453358;28;19940;-78
2022/03/17 13:34:36;;;;;;;;;;;;;;;11.43;85.25;99433.97;10467466;28;19936;-79
2022/03/17 13:39:39;;;;;;;;;;;;;;;10.88;81.58;99441.19;10427635;28;19928;-82
2022/03/17 13:44:54;;;;;;;;;;;;;;;10.67;80.65;99443.44;10448352;28;19992;-80
2022/03/17 13:50:07;;;;;;;;;;;;;;;11.15;83.81;99451.97;10486178;28;20489;-79
2022/03/17 13:55:14;;;;;;;;;;;;;;;11.27;91.89;99448.81;10491232;28;19939;-79
2022/03/17 14:00:22;;;;;;;;;;;;;;;11.13;86.35;99466.81;10484082;28;19929;-85
2022/03/17 14:05:24;;;;;;;;;;;;;;;11.16;86.68;99477.78;10498371;28;19968;-79
2022/03/17 14:10:25;;;;;;;;;;;;;;;10.85;95.24;99472.13;10487819;28;19924;-79
2022/03/17 14:15:26;;;;;;;;;;;;;;;10.72;92.08;99475.59;10451301;28;20571;-80
2022/03/17 14:20:26;;;;;;;;;;;;;;;10.68;90.87;99472.69;10452335;28;19980;-80
2022/03/17 14:25:28;;;;;;;;;;;;;;;10.76;90.56;99473.91;10423793;28;20431;-83
2022/03/17 14:30:28;;;;;;;;;;;;;;;10.75;90.84;99486.53;10451418;28;19936;-81
2022/03/17 14:35:29;;;;;;;;;;;;;;;10.57;90.11;99487.34;10470766;28;19936;-79
2022/03/17 14:40:29;;;;;;;;;;;;;;;10.74;99.05;99487.63;10458424;28;19933;-80
2022/03/17 14:45:30;;;;;;;;;;;;;;;10.69;89.66;99489.56;10451206;28;20541;-78
2022/03/17 14:50:30;;;;;;;;;;;;;;;10.72;89.27;99494.38;10444434;28;19920;-82
2022/03/17 14:55:32;;;;;;;;;;;;;;;10.51;88.33;99493.88;10493355;28;20027;-77
2022/03/17 15:00:33;;;;;;;;;;;;;;;10.43;91.42;99505.31;10478444;28;19968;-78
2022/03/17 15:05:33;;;;;;;;;;;;;;;10.36;93.15;99502.19;10474411;28;20327;-79
2022/03/17 15:10:36;;;;;;;;;;;;;;;10.39;92.58;99512.34;10465333;28;19933;-80
2022/03/17 15:15:38;;;;;;;;;;;;;;;10.47;92.68;99509.78;10478475;28;20704;-82
2022/03/17 15:20:38;;;;;;;;;;;;;;;10.57;89.49;99510.72;10461972;28;20007;-79
2022/03/17 15:25:39;;;;;;;;;;;;;;;10.38;92.45;99518.78;10462483;28;19935;-80
2022/03/17 15:30:39;;;;;;;;;;;;;;;10.33;86.89;99524.22;10451527;28;19928;-80
2022/03/17 15:35:40;;;;;;;;;;;;;;;10.45;90.60;99535.34;10451144;28;20459;-79
2022/03/17 15:40:41;;;;;;;;;;;;;;;10.51;89.42;99531.47;10464863;28;19932;-78
2022/03/17 15:45:44;;;;;;;;;;;;;;;10.32;92.82;99530.69;10482028;28;19924;-80
2022/03/17 15:50:47;;;;;;;;;;;;;;;10.42;91.65;99539.41;10473160;28;20445;-82
2022/03/17 15:55:48;;;;;;;;;;;;;;;10.39;92.38;99547.22;10450405;28;19952;-79
2022/03/17 16:00:49;;;;;;;;;;;;;;;10.32;88.81;99555.63;10478664;28;20016;-79
2022/03/17 16:05:50;;;;;;;;;;;;;;;10.21;89.07;99557.63;10460258;28;20083;-81
2022/03/17 16:16:11;;;;;;;;;;;;;;;10.05;87.68;99564.25;10480996;28;19963;-84
2022/03/17 16:21:12;;;;;;;;;;;;;;;10.12;88.12;99571.97;10504919;28;19935;-80
2022/03/17 16:26:13;;;;;;;;;;;;;;;10.04;90.67;99586.00;10499470;28;19939;-83
2022/03/17 16:31:19;;;;;;;;;;;;;;;9.90;93.65;99593.97;10492977;28;19935;-81
2022/03/17 16:36:20;;;;;;;;;;;;;;;9.89;100.00;99595.84;10464115;28;19936;-80
2022/03/17 16:41:21;;;;;;;;;;;;;;;9.73;100.00;99605.16;10456552;28;19951;-81
2022/03/17 16:46:23;;;;;;;;;;;;;;;9.64;100.00;99617.56;10472580;28;19932;-82
2022/03/17 16:51:23;;;;;;;;;;;;;;;9.61;100.00;99624.31;10428673;28;19939;-79
2022/03/17 16:56:24;;;;;;;;;;;;;;;9.56;100.00;99628.91;10448563;28;20032;-79
2022/03/17 17:01:27;;;;;;;;;;;;;;;9.46;100.00;99635.16;10474760;28;20469;-81
2022/03/17 17:06:28;;;;;;;;;;;;;;;9.44;100.00;99647.25;10483474;28;19928;-79
2022/03/17 17:11:29;;;;;;;;;;;;;;;9.41;100.00;99641.34;10482959;28;19924;-79
2022/03/17 17:16:30;;;;;;;;;;;;;;;9.25;100.00;99645.25;10483508;28;19955;-79
2022/03/17 17:21:30;;;;;;;;;;;;;;;9.23;100.00;99654.63;10464885;28;19951;-80
2022/03/17 17:31:50;;;;;;;;;;;;;;;9.21;100.00;99654.91;10493681;28;19932;-78
2022/03/17 17:36:51;;;;;;;;;;;;;;;9.11;100.00;99660.34;10472311;28;19928;-79
2022/03/17 17:41:54;;;;;;;;;;;;;;;9.02;100.00;99668.19;10492265;28;19956;-80
2022/03/17 17:46:56;;;;;;;;;;;;;;;8.93;100.00;99677.06;10515465;28;19928;-79
2022/03/17 17:51:56;;;;;;;;;;;;;;;8.87;100.00;99683.53;10477193;28;19939;-79
2022/03/17 17:57:00;;;;;;;;;;;;;;;8.83;100.00;99686.78;10492360;28;19924;-78
2022/03/17 18:02:02;;;;;;;;;;;;;;;8.78;100.00;99688.69;10484263;28;20102;-78
2022/03/17 18:07:02;;;;;;;;;;;;;;;8.76;100.00;99699.66;10447882;28;19939;-79
2022/03/17 18:12:03;;;;;;;;;;;;;;;8.68;100.00;99702.09;10440834;28;19912;-78
2022/03/17 18:17:03;;;;;;;;;;;;;;;8.75;100.00;99711.44;10445521;28;19979;-78
2022/03/17 18:22:05;;;;;;;;;;;;;;;8.74;100.00;99709.84;10458979;28;19956;-78
2022/03/17 18:27:06;;;;;;;;;;;;;;;8.63;100.00;99716.31;10468918;28;19925;-79
2022/03/17 18:32:07;;;;;;;;;;;;;;;8.62;100.00;99719.28;10465417;28;19913;-81
2022/03/17 18:37:09;;;;;;;;;;;;;;;8.64;100.00;99722.47;10474914;28;19930;-78
2022/03/17 18:42:10;;;;;;;;;;;;;;;8.66;100.00;99729.16;10478024;28;19939;-77
2022/03/17 18:47:10;;;;;;;;;;;;;;;8.65;100.00;99735.56;10471129;28;19932;-79
2022/03/17 18:52:10;;;;;;;;;;;;;;;8.63;100.00;99750.31;10403439;28;19929;-79
2022/03/17 18:57:11;;;;;;;;;;;;;;;8.58;100.00;99753.00;10455577;28;19929;-77
2022/03/17 19:02:14;;;;;;;;;;;;;;;8.53;100.00;99757.31;10435169;28;19929;-78
2022/03/17 19:07:14;;;;;;;;;;;;;;;8.44;100.00;99758.13;10452026;28;19928;-81
2022/03/17 19:12:15;;;;;;;;;;;;;;;8.49;100.00;99758.09;10488915;28;19909;-78
2022/03/17 19:17:19;;;;;;;;;;;;;;;8.59;100.00;99774.13;10433556;28;19924;-79
2022/03/17 19:22:25;;;;;;;;;;;;;;;8.58;100.00;99780.56;10453529;28;19939;-79
2022/03/17 19:27:32;;;;;;;;;;;;;;;8.48;100.00;99781.38;10481056;28;19931;-79
2022/03/17 19:32:32;;;;;;;;;;;;;;;8.53;100.00;99802.81;10453341;28;19935;-79
2022/03/17 19:37:33;;;;;;;;;;;;;;;8.43;100.00;99802.03;10505331;28;19925;-77
2022/03/17 19:42:33;;;;;;;;;;;;;;;8.31;100.00;99801.47;10467456;28;19931;-83
2022/03/17 19:47:35;;;;;;;;;;;;;;;8.28;100.00;99817.00;10484604;28;19917;-78
2022/03/17 19:52:36;;;;;;;;;;;;;;;8.23;100.00;99821.56;10512173;28;19928;-77
2022/03/17 19:57:37;;;;;;;;;;;;;;;8.23;100.00;99824.22;10520537;28;19912;-81
2022/03/17 20:02:38;;;;;;;;;;;;;;;8.29;100.00;99831.16;10480185;28;19928;-77
2022/03/17 20:07:40;;;;;;;;;;;;;;;8.15;100.00;99835.47;10481385;28;19986;-78
2022/03/17 20:18:00;;;;;;;;;;;;;;;8.23;100.00;99854.47;10498108;28;19924;-78
2022/03/17 20:23:00;;;;;;;;;;;;;;;8.17;100.00;99855.53;10470454;28;20304;-79
2022/03/17 20:28:01;;;;;;;;;;;;;;;8.19;100.00;99857.91;10466194;28;19936;-78
2022/03/17 20:33:03;;;;;;;;;;;;;;;8.16;100.00;99861.94;10492623;28;20259;-80
2022/03/17 20:38:04;;;;;;;;;;;;;;;8.14;100.00;99868.63;10507034;28;19924;-83
2022/03/17 20:43:05;;;;;;;;;;;;;;;8.19;100.00;99873.97;10449728;28;19951;-79
2022/03/17 20:48:07;;;;;;;;;;;;;;;8.18;100.00;99872.38;10466423;28;19940;-83
2022/03/17 20:53:08;;;;;;;;;;;;;;;8.13;100.00;99883.06;10483646;28;19932;-82
2022/03/17 20:58:11;;;;;;;;;;;;;;;8.13;100.00;99889.19;10502037;28;20018;-79
2022/03/17 21:03:12;;;;;;;;;;;;;;;8.13;100.00;99897.22;10505401;28;19924;-79
2022/03/17 21:08:13;;;;;;;;;;;;;;;8.16;100.00;99902.06;10503987;28;19938;-79
2022/03/17 21:13:26;;;;;;;;;;;;;;;8.10;100.00;99915.69;10490572;28;19928;-82
2022/03/17 21:18:29;;;;;;;;;;;;;;;8.07;100.00;99925.06;10488298;28;19921;-81
2022/03/17 21:23:32;;;;;;;;;;;;;;;8.06;100.00;99922.66;10520183;28;19935;-79
2022/03/17 21:28:34;;;;;;;;;;;;;;;8.07;100.00;99938.41;10514567;28;19915;-78
2022/03/17 21:33:41;;;;;;;;;;;;;;;8.10;100.00;99951.25;10490234;28;20328;-80
2022/03/17 21:38:43;;;;;;;;;;;;;;;8.12;100.00;99957.13;10488790;28;19929;-80
2022/03/17 21:44:00;;;;;;;;;;;;;;;8.16;100.00;99958.22;10513032;28;19932;-79
2022/03/17 21:49:03;;;;;;;;;;;;;;;8.07;100.00;99962.47;10502504;28;19928;-79
2022/03/17 21:54:06;;;;;;;;;;;;;;;8.09;100.00;99957.66;10471464;28;19940;-80
2022/03/17 21:59:07;;;;;;;;;;;;;;;8.03;100.00;99956.03;10514639;28;19931;-82
2022/03/17 22:04:08;;;;;;;;;;;;;;;8.03;100.00;99963.25;10535691;23;19940;-80
2022/03/17 22:09:10;;;;;;;;;;;;;;;7.99;100.00;99963.81;10370998;28;19933;-80
2022/03/17 22:14:10;;;;;;;;;;;;;;;8.06;100.00;99970.78;10391846;28;19926;-80
2022/03/17 22:19:14;;;;;;;;;;;;;;;8.10;100.00;99974.50;10389402;28;19933;-80
2022/03/17 22:24:15;;;;;;;;;;;;;;;8.12;100.00;99977.72;10443073;28;19939;-79
2022/03/17 22:29:16;;;;;;;;;;;;;;;8.07;100.00;99980.41;10433164;28;19940;-81
2022/03/17 22:34:23;;;;;;;;;;;;;;;8.07;100.00;99977.72;10419211;28;19934;-77
2022/03/17 22:39:27;;;;;;;;;;;;;;;8.06;100.00;99979.59;10418802;28;19992;-79
2022/03/17 22:44:28;;;;;;;;;;;;;;;8.09;100.00;99986.28;10434824;28;19929;-77
2022/03/17 22:49:28;;;;;;;;;;;;;;;8.06;100.00;99987.63;10414282;28;20177;-79
2022/03/17 22:54:29;;;;;;;;;;;;;;;8.04;100.00;99995.09;10443485;28;19924;-78
2022/03/17 22:59:31;;;;;;;;;;;;;;;7.99;100.00;100000.44;10427202;28;19914;-79
2022/03/17 23:04:31;;;;;;;;;;;;;;;7.94;100.00;100011.91;10439725;28;19914;-79
2022/03/17 23:09:31;;;;;;;;;;;;;;;7.90;100.00;100010.84;10439954;28;19910;-78
2022/03/17 23:14:32;;;;;;;;;;;;;;;7.97;100.00;100014.06;10433670;28;19943;-79
2022/03/17 23:19:32;;;;;;;;;;;;;;;7.88;100.00;100026.34;10432568;28;19916;-78
2022/03/17 23:24:36;;;;;;;;;;;;;;;7.88;100.00;100018.31;10457293;28;19940;-80
2022/03/17 23:29:39;;;;;;;;;;;;;;;7.81;100.00;100020.41;10434835;28;19913;-79
2022/03/17 23:34:40;;;;;;;;;;;;;;;7.82;100.00;100029.25;10441780;28;19913;-81
2022/03/17 23:39:42;;;;;;;;;;;;;;;7.81;100.00;100028.44;10415685;28;19925;-81
2022/03/17 23:44:45;;;;;;;;;;;;;;;7.79;100.00;100033.25;10412016;28;20097;-82
2022/03/17 23:49:46;;;;;;;;;;;;;;;7.76;100.00;100040.97;10352938;28;19929;-83
2022/03/17 23:54:48;;;;;;;;;;;;;;;7.75;100.00;100042.84;10397296;28;20436;-79
2022/03/17 23:59:51;;;;;;;;;;;;;;;7.68;100.00;100051.13;10396526;28;20454;-82
